sensor_id;sensor_type;location;lat;lon;timestamp;P1;durP1;ratioP1;P2;durP2;ratioP2
5277;SDS011;2662;51.194;6.614;2023-02-28T00:00:48;5.67;;;4.50;;
5277;SDS011;2662;51.194;6.614;2023-02-28T00:03:15;7.07;;;3.77;;
5277;SDS011;2662;51.194;6.614;2023-02-28T00:05:42;8.87;;;4.50;;
5277;SDS011;2662;51.194;6.614;2023-02-28T00:08:10;8.80;;;3.67;;
5277;SDS011;2662;51.194;6.614;2023-02-28T00:10:38;6.30;;;4.03;;
5277;SDS011;2662;51.194;6.614;2023-02-28T00:13:05;9.60;;;3.90;;
5277;SDS011;2662;51.194;6.614;2023-02-28T00:15:33;7.30;;;3.87;;
5277;SDS011;2662;51.194;6.614;2023-02-28T00:18:00;6.30;;;3.83;;
5277;SDS011;2662;51.194;6.614;2023-02-28T00:20:27;9.17;;;4.70;;
5277;SDS011;2662;51.194;6.614;2023-02-28T00:22:54;10.60;;;4.27;;
5277;SDS011;2662;51.194;6.614;2023-02-28T00:25:24;8.03;;;4.03;;
5277;SDS011;2662;51.194;6.614;2023-02-28T00:27:51;7.90;;;3.77;;
5277;SDS011;2662;51.194;6.614;2023-02-28T00:30:19;5.87;;;3.87;;
5277;SDS011;2662;51.194;6.614;2023-02-28T00:32:47;7.20;;;4.23;;
5277;SDS011;2662;51.194;6.614;2023-02-28T00:35:14;5.60;;;3.70;;
5277;SDS011;2662;51.194;6.614;2023-02-28T00:37:42;5.80;;;3.93;;
5277;SDS011;2662;51.194;6.614;2023-02-28T00:40:09;5.80;;;4.20;;
5277;SDS011;2662;51.194;6.614;2023-02-28T00:42:38;8.80;;;4.90;;
5277;SDS011;2662;51.194;6.614;2023-02-28T00:45:06;10.33;;;4.93;;
5277;SDS011;2662;51.194;6.614;2023-02-28T00:47:33;10.82;;;3.70;;
5277;SDS011;2662;51.194;6.614;2023-02-28T00:50:01;4.10;;;3.70;;
5277;SDS011;2662;51.194;6.614;2023-02-28T00:52:28;7.30;;;4.13;;
5277;SDS011;2662;51.194;6.614;2023-02-28T00:54:55;8.33;;;4.20;;
5277;SDS011;2662;51.194;6.614;2023-02-28T00:57:22;6.60;;;4.17;;
5277;SDS011;2662;51.194;6.614;2023-02-28T00:59:50;8.80;;;4.13;;
5277;SDS011;2662;51.194;6.614;2023-02-28T01:02:19;6.73;;;4.77;;
5277;SDS011;2662;51.194;6.614;2023-02-28T01:04:46;5.67;;;3.80;;
5277;SDS011;2662;51.194;6.614;2023-02-28T01:07:13;5.40;;;4.30;;
5277;SDS011;2662;51.194;6.614;2023-02-28T01:09:40;10.30;;;4.40;;
5277;SDS011;2662;51.194;6.614;2023-02-28T01:12:07;6.00;;;4.13;;
5277;SDS011;2662;51.194;6.614;2023-02-28T01:14:34;4.40;;;3.90;;
5277;SDS011;2662;51.194;6.614;2023-02-28T01:17:02;7.17;;;4.20;;
5277;SDS011;2662;51.194;6.614;2023-02-28T01:19:30;6.23;;;4.00;;
5277;SDS011;2662;51.194;6.614;2023-02-28T01:21:57;5.20;;;3.87;;
5277;SDS011;2662;51.194;6.614;2023-02-28T01:24:26;6.33;;;4.33;;
5277;SDS011;2662;51.194;6.614;2023-02-28T01:26:53;5.40;;;3.93;;
5277;SDS011;2662;51.194;6.614;2023-02-28T01:29:20;7.10;;;4.40;;
5277;SDS011;2662;51.194;6.614;2023-02-28T01:31:46;5.73;;;3.93;;
5277;SDS011;2662;51.194;6.614;2023-02-28T01:34:14;4.17;;;3.77;;
5277;SDS011;2662;51.194;6.614;2023-02-28T01:36:44;8.63;;;4.40;;
5277;SDS011;2662;51.194;6.614;2023-02-28T01:39:10;7.33;;;4.27;;
5277;SDS011;2662;51.194;6.614;2023-02-28T01:41:38;21.37;;;5.20;;
5277;SDS011;2662;51.194;6.614;2023-02-28T01:44:07;10.83;;;4.40;;
5277;SDS011;2662;51.194;6.614;2023-02-28T01:46:49;14.10;;;4.33;;
5277;SDS011;2662;51.194;6.614;2023-02-28T01:49:17;6.40;;;4.10;;
5277;SDS011;2662;51.194;6.614;2023-02-28T01:51:45;11.40;;;4.40;;
5277;SDS011;2662;51.194;6.614;2023-02-28T01:54:16;9.50;;;5.10;;
5277;SDS011;2662;51.194;6.614;2023-02-28T01:56:47;6.00;;;3.97;;
5277;SDS011;2662;51.194;6.614;2023-02-28T01:59:20;6.60;;;4.00;;
5277;SDS011;2662;51.194;6.614;2023-02-28T02:01:49;4.83;;;3.90;;
5277;SDS011;2662;51.194;6.614;2023-02-28T02:04:17;6.33;;;4.80;;
5277;SDS011;2662;51.194;6.614;2023-02-28T02:06:46;6.43;;;4.20;;
5277;SDS011;2662;51.194;6.614;2023-02-28T02:09:15;3.83;;;3.30;;
5277;SDS011;2662;51.194;6.614;2023-02-28T02:11:42;10.70;;;4.17;;
5277;SDS011;2662;51.194;6.614;2023-02-28T02:14:26;5.47;;;3.90;;
5277;SDS011;2662;51.194;6.614;2023-02-28T02:17:04;5.43;;;3.83;;
5277;SDS011;2662;51.194;6.614;2023-02-28T02:23:01;7.43;;;3.90;;
5277;SDS011;2662;51.194;6.614;2023-02-28T02:25:48;13.52;;;4.20;;
5277;SDS011;2662;51.194;6.614;2023-02-28T02:28:29;5.80;;;4.00;;
5277;SDS011;2662;51.194;6.614;2023-02-28T02:31:22;6.25;;;4.13;;
5277;SDS011;2662;51.194;6.614;2023-02-28T02:34:20;9.82;;;4.40;;
5277;SDS011;2662;51.194;6.614;2023-02-28T02:36:53;5.53;;;3.85;;
5277;SDS011;2662;51.194;6.614;2023-02-28T02:39:29;5.15;;;4.05;;
5277;SDS011;2662;51.194;6.614;2023-02-28T02:42:01;10.20;;;4.70;;
5277;SDS011;2662;51.194;6.614;2023-02-28T02:44:31;6.40;;;3.92;;
5277;SDS011;2662;51.194;6.614;2023-02-28T02:47:06;15.57;;;4.40;;
5277;SDS011;2662;51.194;6.614;2023-02-28T02:49:38;6.63;;;3.92;;
5277;SDS011;2662;51.194;6.614;2023-02-28T02:52:10;9.30;;;4.40;;
5277;SDS011;2662;51.194;6.614;2023-02-28T02:54:40;4.72;;;4.15;;
5277;SDS011;2662;51.194;6.614;2023-02-28T02:57:10;5.65;;;4.05;;
5277;SDS011;2662;51.194;6.614;2023-02-28T02:59:41;6.50;;;4.28;;
5277;SDS011;2662;51.194;6.614;2023-02-28T03:02:10;6.70;;;4.13;;
5277;SDS011;2662;51.194;6.614;2023-02-28T03:04:42;14.47;;;4.43;;
5277;SDS011;2662;51.194;6.614;2023-02-28T03:07:12;6.00;;;4.05;;
5277;SDS011;2662;51.194;6.614;2023-02-28T03:09:38;9.48;;;4.20;;
5277;SDS011;2662;51.194;6.614;2023-02-28T03:12:06;9.40;;;4.80;;
5277;SDS011;2662;51.194;6.614;2023-02-28T03:14:40;4.00;;;3.17;;
5277;SDS011;2662;51.194;6.614;2023-02-28T03:17:30;5.82;;;3.63;;
5277;SDS011;2662;51.194;6.614;2023-02-28T03:20:15;5.97;;;3.20;;
5277;SDS011;2662;51.194;6.614;2023-02-28T03:22:52;9.80;;;3.70;;
5277;SDS011;2662;51.194;6.614;2023-02-28T03:25:29;6.20;;;3.60;;
5277;SDS011;2662;51.194;6.614;2023-02-28T03:28:03;8.43;;;4.20;;
5277;SDS011;2662;51.194;6.614;2023-02-28T03:30:38;6.50;;;4.45;;
5277;SDS011;2662;51.194;6.614;2023-02-28T03:33:09;4.00;;;3.67;;
5277;SDS011;2662;51.194;6.614;2023-02-28T03:35:40;9.25;;;4.10;;
5277;SDS011;2662;51.194;6.614;2023-02-28T03:38:10;4.15;;;3.42;;
5277;SDS011;2662;51.194;6.614;2023-02-28T03:40:45;4.20;;;3.80;;
5277;SDS011;2662;51.194;6.614;2023-02-28T03:43:17;4.95;;;3.30;;
5277;SDS011;2662;51.194;6.614;2023-02-28T03:45:47;8.90;;;3.83;;
5277;SDS011;2662;51.194;6.614;2023-02-28T03:48:17;3.63;;;3.30;;
5277;SDS011;2662;51.194;6.614;2023-02-28T03:50:50;3.85;;;3.40;;
5277;SDS011;2662;51.194;6.614;2023-02-28T03:53:22;4.40;;;3.30;;
5277;SDS011;2662;51.194;6.614;2023-02-28T03:55:53;10.38;;;3.70;;
5277;SDS011;2662;51.194;6.614;2023-02-28T03:58:26;7.47;;;3.25;;
5277;SDS011;2662;51.194;6.614;2023-02-28T04:00:57;5.03;;;2.83;;
5277;SDS011;2662;51.194;6.614;2023-02-28T04:03:33;6.32;;;3.50;;
5277;SDS011;2662;51.194;6.614;2023-02-28T04:06:02;5.30;;;3.40;;
5277;SDS011;2662;51.194;6.614;2023-02-28T04:08:30;6.55;;;3.63;;
5277;SDS011;2662;51.194;6.614;2023-02-28T04:10:58;5.03;;;3.58;;
5277;SDS011;2662;51.194;6.614;2023-02-28T04:13:30;5.47;;;3.00;;
5277;SDS011;2662;51.194;6.614;2023-02-28T04:15:57;3.50;;;3.20;;
5277;SDS011;2662;51.194;6.614;2023-02-28T04:18:24;9.65;;;3.83;;
5277;SDS011;2662;51.194;6.614;2023-02-28T04:20:51;5.95;;;3.47;;
5277;SDS011;2662;51.194;6.614;2023-02-28T04:23:19;3.65;;;2.90;;
5277;SDS011;2662;51.194;6.614;2023-02-28T04:25:45;6.97;;;3.28;;
5277;SDS011;2662;51.194;6.614;2023-02-28T04:28:12;3.97;;;2.75;;
5277;SDS011;2662;51.194;6.614;2023-02-28T04:30:39;3.13;;;2.85;;
5277;SDS011;2662;51.194;6.614;2023-02-28T04:33:05;12.60;;;3.60;;
5277;SDS011;2662;51.194;6.614;2023-02-28T04:35:32;4.00;;;2.78;;
5277;SDS011;2662;51.194;6.614;2023-02-28T04:37:59;3.70;;;3.15;;
5277;SDS011;2662;51.194;6.614;2023-02-28T04:40:27;3.13;;;2.78;;
5277;SDS011;2662;51.194;6.614;2023-02-28T04:42:53;3.78;;;3.30;;
5277;SDS011;2662;51.194;6.614;2023-02-28T04:45:20;3.03;;;2.80;;
5277;SDS011;2662;51.194;6.614;2023-02-28T04:47:47;4.45;;;3.00;;
5277;SDS011;2662;51.194;6.614;2023-02-28T04:50:14;3.33;;;2.63;;
5277;SDS011;2662;51.194;6.614;2023-02-28T04:52:41;4.18;;;3.25;;
5277;SDS011;2662;51.194;6.614;2023-02-28T04:55:07;6.80;;;3.05;;
5277;SDS011;2662;51.194;6.614;2023-02-28T04:57:36;5.10;;;2.75;;
5277;SDS011;2662;51.194;6.614;2023-02-28T05:00:03;3.13;;;2.75;;
5277;SDS011;2662;51.194;6.614;2023-02-28T05:02:36;4.25;;;2.63;;
5277;SDS011;2662;51.194;6.614;2023-02-28T05:05:03;5.22;;;3.30;;
5277;SDS011;2662;51.194;6.614;2023-02-28T05:07:30;7.00;;;3.20;;
5277;SDS011;2662;51.194;6.614;2023-02-28T05:09:57;4.55;;;3.30;;
5277;SDS011;2662;51.194;6.614;2023-02-28T05:12:23;3.72;;;2.85;;
5277;SDS011;2662;51.194;6.614;2023-02-28T05:14:52;4.00;;;3.15;;
5277;SDS011;2662;51.194;6.614;2023-02-28T05:17:18;3.63;;;2.85;;
5277;SDS011;2662;51.194;6.614;2023-02-28T05:19:45;3.90;;;3.13;;
5277;SDS011;2662;51.194;6.614;2023-02-28T05:22:12;2.92;;;2.63;;
5277;SDS011;2662;51.194;6.614;2023-02-28T05:24:41;5.30;;;3.22;;
5277;SDS011;2662;51.194;6.614;2023-02-28T05:27:08;3.40;;;3.10;;
5277;SDS011;2662;51.194;6.614;2023-02-28T05:29:35;3.38;;;2.95;;
5277;SDS011;2662;51.194;6.614;2023-02-28T05:32:08;3.03;;;2.72;;
5277;SDS011;2662;51.194;6.614;2023-02-28T05:34:35;3.10;;;2.58;;
5277;SDS011;2662;51.194;6.614;2023-02-28T05:37:02;5.43;;;3.00;;
5277;SDS011;2662;51.194;6.614;2023-02-28T05:39:29;4.07;;;3.03;;
5277;SDS011;2662;51.194;6.614;2023-02-28T05:41:56;5.95;;;2.80;;
5277;SDS011;2662;51.194;6.614;2023-02-28T05:44:23;5.82;;;2.47;;
5277;SDS011;2662;51.194;6.614;2023-02-28T05:46:50;2.85;;;2.60;;
5277;SDS011;2662;51.194;6.614;2023-02-28T05:49:18;5.05;;;2.63;;
5277;SDS011;2662;51.194;6.614;2023-02-28T05:51:45;10.07;;;3.15;;
5277;SDS011;2662;51.194;6.614;2023-02-28T05:54:11;3.20;;;2.67;;
5277;SDS011;2662;51.194;6.614;2023-02-28T05:56:38;6.40;;;3.10;;
5277;SDS011;2662;51.194;6.614;2023-02-28T05:59:08;5.88;;;2.60;;
5277;SDS011;2662;51.194;6.614;2023-02-28T06:01:36;10.32;;;3.40;;
5277;SDS011;2662;51.194;6.614;2023-02-28T06:04:04;4.18;;;2.65;;
5277;SDS011;2662;51.194;6.614;2023-02-28T06:06:34;4.05;;;2.72;;
5277;SDS011;2662;51.194;6.614;2023-02-28T06:09:02;4.65;;;3.00;;
5277;SDS011;2662;51.194;6.614;2023-02-28T06:11:29;6.93;;;3.00;;
5277;SDS011;2662;51.194;6.614;2023-02-28T06:13:56;4.82;;;2.80;;
5277;SDS011;2662;51.194;6.614;2023-02-28T06:16:24;4.70;;;3.10;;
5277;SDS011;2662;51.194;6.614;2023-02-28T06:18:52;3.55;;;3.25;;
5277;SDS011;2662;51.194;6.614;2023-02-28T06:21:20;5.82;;;3.05;;
5277;SDS011;2662;51.194;6.614;2023-02-28T06:23:48;4.25;;;2.40;;
5277;SDS011;2662;51.194;6.614;2023-02-28T06:26:15;8.23;;;3.60;;
5277;SDS011;2662;51.194;6.614;2023-02-28T06:28:42;3.15;;;2.95;;
5277;SDS011;2662;51.194;6.614;2023-02-28T06:31:09;3.40;;;2.80;;
5277;SDS011;2662;51.194;6.614;2023-02-28T06:33:37;3.60;;;2.97;;
5277;SDS011;2662;51.194;6.614;2023-02-28T06:36:05;4.32;;;3.17;;
5277;SDS011;2662;51.194;6.614;2023-02-28T06:38:33;3.40;;;2.90;;
5277;SDS011;2662;51.194;6.614;2023-02-28T06:41:01;9.48;;;3.13;;
5277;SDS011;2662;51.194;6.614;2023-02-28T06:43:29;5.47;;;3.00;;
5277;SDS011;2662;51.194;6.614;2023-02-28T06:45:58;5.22;;;2.72;;
5277;SDS011;2662;51.194;6.614;2023-02-28T06:48:26;3.95;;;2.60;;
5277;SDS011;2662;51.194;6.614;2023-02-28T06:51:00;5.68;;;3.38;;
5277;SDS011;2662;51.194;6.614;2023-02-28T06:53:28;4.07;;;2.60;;
5277;SDS011;2662;51.194;6.614;2023-02-28T06:55:55;5.35;;;2.75;;
5277;SDS011;2662;51.194;6.614;2023-02-28T06:58:23;3.15;;;2.95;;
5277;SDS011;2662;51.194;6.614;2023-02-28T07:00:50;5.40;;;3.00;;
5277;SDS011;2662;51.194;6.614;2023-02-28T07:03:18;3.10;;;2.80;;
5277;SDS011;2662;51.194;6.614;2023-02-28T07:05:45;7.95;;;3.50;;
5277;SDS011;2662;51.194;6.614;2023-02-28T07:08:12;2.92;;;2.65;;
5277;SDS011;2662;51.194;6.614;2023-02-28T07:10:38;4.30;;;2.55;;
5277;SDS011;2662;51.194;6.614;2023-02-28T07:13:06;3.50;;;2.60;;
5277;SDS011;2662;51.194;6.614;2023-02-28T07:15:35;5.03;;;2.57;;
5277;SDS011;2662;51.194;6.614;2023-02-28T07:18:02;5.43;;;2.80;;
5277;SDS011;2662;51.194;6.614;2023-02-28T07:20:30;9.10;;;3.23;;
5277;SDS011;2662;51.194;6.614;2023-02-28T07:22:56;5.23;;;2.73;;
5277;SDS011;2662;51.194;6.614;2023-02-28T07:25:23;4.40;;;2.77;;
5277;SDS011;2662;51.194;6.614;2023-02-28T07:27:51;3.17;;;2.77;;
5277;SDS011;2662;51.194;6.614;2023-02-28T07:30:18;3.20;;;2.90;;
5277;SDS011;2662;51.194;6.614;2023-02-28T07:32:46;3.57;;;2.60;;
5277;SDS011;2662;51.194;6.614;2023-02-28T07:35:13;3.50;;;2.60;;
5277;SDS011;2662;51.194;6.614;2023-02-28T07:37:40;12.30;;;3.40;;
5277;SDS011;2662;51.194;6.614;2023-02-28T07:40:08;4.10;;;2.93;;
5277;SDS011;2662;51.194;6.614;2023-02-28T07:42:37;3.43;;;2.80;;
5277;SDS011;2662;51.194;6.614;2023-02-28T07:45:05;3.57;;;2.67;;
5277;SDS011;2662;51.194;6.614;2023-02-28T07:47:33;10.63;;;2.90;;
5277;SDS011;2662;51.194;6.614;2023-02-28T07:50:01;7.13;;;2.83;;
5277;SDS011;2662;51.194;6.614;2023-02-28T07:52:27;4.03;;;2.63;;
5277;SDS011;2662;51.194;6.614;2023-02-28T07:54:54;4.40;;;3.10;;
5277;SDS011;2662;51.194;6.614;2023-02-28T07:57:21;4.17;;;2.80;;
5277;SDS011;2662;51.194;6.614;2023-02-28T07:59:48;3.73;;;2.50;;
5277;SDS011;2662;51.194;6.614;2023-02-28T08:02:15;2.47;;;2.27;;
5277;SDS011;2662;51.194;6.614;2023-02-28T08:04:44;13.17;;;2.93;;
5277;SDS011;2662;51.194;6.614;2023-02-28T08:07:13;7.10;;;2.80;;
5277;SDS011;2662;51.194;6.614;2023-02-28T08:09:41;3.27;;;2.50;;
5277;SDS011;2662;51.194;6.614;2023-02-28T08:12:08;7.33;;;2.20;;
5277;SDS011;2662;51.194;6.614;2023-02-28T08:14:35;3.70;;;2.47;;
5277;SDS011;2662;51.194;6.614;2023-02-28T08:17:03;2.40;;;2.20;;
5277;SDS011;2662;51.194;6.614;2023-02-28T08:19:30;2.30;;;2.10;;
5277;SDS011;2662;51.194;6.614;2023-02-28T08:21:57;2.03;;;1.70;;
5277;SDS011;2662;51.194;6.614;2023-02-28T08:24:25;2.50;;;2.00;;
5277;SDS011;2662;51.194;6.614;2023-02-28T08:26:52;2.33;;;1.87;;
5277;SDS011;2662;51.194;6.614;2023-02-28T08:29:19;1.83;;;1.73;;
5277;SDS011;2662;51.194;6.614;2023-02-28T08:31:45;1.70;;;1.60;;
5277;SDS011;2662;51.194;6.614;2023-02-28T08:34:13;2.33;;;1.80;;
5277;SDS011;2662;51.194;6.614;2023-02-28T08:36:41;3.97;;;1.30;;
5277;SDS011;2662;51.194;6.614;2023-02-28T08:39:09;4.70;;;1.33;;
5277;SDS011;2662;51.194;6.614;2023-02-28T08:41:38;1.30;;;1.30;;
5277;SDS011;2662;51.194;6.614;2023-02-28T08:44:05;1.47;;;1.37;;
5277;SDS011;2662;51.194;6.614;2023-02-28T08:46:31;1.43;;;1.30;;
5277;SDS011;2662;51.194;6.614;2023-02-28T08:48:58;2.00;;;1.30;;
5277;SDS011;2662;51.194;6.614;2023-02-28T08:51:27;2.23;;;1.30;;
5277;SDS011;2662;51.194;6.614;2023-02-28T08:53:54;1.23;;;1.10;;
5277;SDS011;2662;51.194;6.614;2023-02-28T08:56:24;0.90;;;0.90;;
5277;SDS011;2662;51.194;6.614;2023-02-28T08:58:54;2.00;;;1.20;;
5277;SDS011;2662;51.194;6.614;2023-02-28T09:01:22;0.90;;;0.90;;
5277;SDS011;2662;51.194;6.614;2023-02-28T09:03:52;1.43;;;1.23;;
5277;SDS011;2662;51.194;6.614;2023-02-28T09:06:20;1.33;;;1.13;;
5277;SDS011;2662;51.194;6.614;2023-02-28T09:08:48;5.00;;;1.50;;
5277;SDS011;2662;51.194;6.614;2023-02-28T09:11:15;1.33;;;1.23;;
5277;SDS011;2662;51.194;6.614;2023-02-28T09:13:44;1.10;;;1.00;;
5277;SDS011;2662;51.194;6.614;2023-02-28T09:16:13;1.33;;;1.10;;
5277;SDS011;2662;51.194;6.614;2023-02-28T09:18:41;1.13;;;1.00;;
5277;SDS011;2662;51.194;6.614;2023-02-28T09:21:08;0.97;;;0.97;;
5277;SDS011;2662;51.194;6.614;2023-02-28T09:23:38;2.60;;;1.37;;
5277;SDS011;2662;51.194;6.614;2023-02-28T09:26:05;1.63;;;1.43;;
5277;SDS011;2662;51.194;6.614;2023-02-28T09:28:33;1.90;;;1.47;;
5277;SDS011;2662;51.194;6.614;2023-02-28T09:30:59;2.60;;;1.20;;
5277;SDS011;2662;51.194;6.614;2023-02-28T09:33:27;1.13;;;1.13;;
5277;SDS011;2662;51.194;6.614;2023-02-28T09:35:57;1.87;;;1.27;;
5277;SDS011;2662;51.194;6.614;2023-02-28T09:38:25;1.30;;;1.20;;
5277;SDS011;2662;51.194;6.614;2023-02-28T09:40:53;1.50;;;1.13;;
5277;SDS011;2662;51.194;6.614;2023-02-28T09:43:23;1.10;;;1.10;;
5277;SDS011;2662;51.194;6.614;2023-02-28T09:45:52;1.30;;;1.20;;
5277;SDS011;2662;51.194;6.614;2023-02-28T09:48:24;1.40;;;1.30;;
5277;SDS011;2662;51.194;6.614;2023-02-28T09:50:55;1.57;;;1.43;;
5277;SDS011;2662;51.194;6.614;2023-02-28T09:53:28;1.10;;;1.10;;
5277;SDS011;2662;51.194;6.614;2023-02-28T09:55:59;5.90;;;1.20;;
5277;SDS011;2662;51.194;6.614;2023-02-28T09:58:32;1.23;;;1.13;;
5277;SDS011;2662;51.194;6.614;2023-02-28T10:01:08;1.60;;;1.50;;
5277;SDS011;2662;51.194;6.614;2023-02-28T10:03:45;2.77;;;1.30;;
5277;SDS011;2662;51.194;6.614;2023-02-28T10:06:19;1.17;;;1.00;;
5277;SDS011;2662;51.194;6.614;2023-02-28T10:08:50;1.43;;;1.33;;
5277;SDS011;2662;51.194;6.614;2023-02-28T10:11:22;1.97;;;1.50;;
5277;SDS011;2662;51.194;6.614;2023-02-28T10:13:52;1.30;;;1.20;;
5277;SDS011;2662;51.194;6.614;2023-02-28T10:16:25;1.47;;;1.30;;
5277;SDS011;2662;51.194;6.614;2023-02-28T10:18:56;2.47;;;1.33;;
5277;SDS011;2662;51.194;6.614;2023-02-28T10:21:28;1.30;;;1.20;;
5277;SDS011;2662;51.194;6.614;2023-02-28T10:24:02;1.83;;;1.20;;
5277;SDS011;2662;51.194;6.614;2023-02-28T10:26:37;5.30;;;1.40;;
5277;SDS011;2662;51.194;6.614;2023-02-28T10:29:04;1.63;;;1.20;;
5277;SDS011;2662;51.194;6.614;2023-02-28T10:31:31;9.17;;;1.00;;
5277;SDS011;2662;51.194;6.614;2023-02-28T10:33:58;1.57;;;1.47;;
5277;SDS011;2662;51.194;6.614;2023-02-28T10:36:24;2.50;;;1.77;;
5277;SDS011;2662;51.194;6.614;2023-02-28T10:38:52;1.40;;;1.20;;
5277;SDS011;2662;51.194;6.614;2023-02-28T10:41:26;1.90;;;1.20;;
5277;SDS011;2662;51.194;6.614;2023-02-28T10:44:13;1.73;;;1.53;;
5277;SDS011;2662;51.194;6.614;2023-02-28T10:46:43;0.90;;;0.90;;
5277;SDS011;2662;51.194;6.614;2023-02-28T10:49:12;3.33;;;1.30;;
5277;SDS011;2662;51.194;6.614;2023-02-28T10:51:41;3.60;;;1.23;;
5277;SDS011;2662;51.194;6.614;2023-02-28T10:54:16;1.20;;;1.10;;
5277;SDS011;2662;51.194;6.614;2023-02-28T10:56:44;1.20;;;1.10;;
5277;SDS011;2662;51.194;6.614;2023-02-28T10:59:26;1.20;;;1.20;;
5277;SDS011;2662;51.194;6.614;2023-02-28T11:01:54;1.60;;;1.50;;
5277;SDS011;2662;51.194;6.614;2023-02-28T11:04:32;1.30;;;1.20;;
5277;SDS011;2662;51.194;6.614;2023-02-28T11:07:02;1.97;;;1.50;;
5277;SDS011;2662;51.194;6.614;2023-02-28T11:09:32;1.27;;;1.20;;
5277;SDS011;2662;51.194;6.614;2023-02-28T11:12:01;2.23;;;1.50;;
5277;SDS011;2662;51.194;6.614;2023-02-28T11:14:31;1.50;;;1.40;;
5277;SDS011;2662;51.194;6.614;2023-02-28T11:17:11;1.40;;;1.30;;
5277;SDS011;2662;51.194;6.614;2023-02-28T11:19:45;1.67;;;1.47;;
5277;SDS011;2662;51.194;6.614;2023-02-28T11:22:17;1.47;;;1.37;;
5277;SDS011;2662;51.194;6.614;2023-02-28T11:24:48;1.30;;;1.20;;
5277;SDS011;2662;51.194;6.614;2023-02-28T11:27:24;1.63;;;1.47;;
5277;SDS011;2662;51.194;6.614;2023-02-28T11:29:52;1.10;;;1.10;;
5277;SDS011;2662;51.194;6.614;2023-02-28T11:32:20;1.63;;;1.30;;
5277;SDS011;2662;51.194;6.614;2023-02-28T11:35:00;1.93;;;1.63;;
5277;SDS011;2662;51.194;6.614;2023-02-28T11:37:29;1.83;;;1.40;;
5277;SDS011;2662;51.194;6.614;2023-02-28T11:39:59;1.37;;;1.27;;
5277;SDS011;2662;51.194;6.614;2023-02-28T11:42:36;1.20;;;1.10;;
5277;SDS011;2662;51.194;6.614;2023-02-28T11:45:24;1.40;;;1.40;;
5277;SDS011;2662;51.194;6.614;2023-02-28T11:48:12;1.40;;;1.40;;
5277;SDS011;2662;51.194;6.614;2023-02-28T11:50:47;1.40;;;1.30;;
5277;SDS011;2662;51.194;6.614;2023-02-28T11:53:24;1.73;;;1.40;;
5277;SDS011;2662;51.194;6.614;2023-02-28T11:56:08;1.40;;;1.30;;
5277;SDS011;2662;51.194;6.614;2023-02-28T11:58:43;1.17;;;1.17;;
5277;SDS011;2662;51.194;6.614;2023-02-28T12:01:32;3.47;;;1.70;;
5277;SDS011;2662;51.194;6.614;2023-02-28T12:04:14;4.03;;;1.03;;
5277;SDS011;2662;51.194;6.614;2023-02-28T12:06:50;2.10;;;1.20;;
5277;SDS011;2662;51.194;6.614;2023-02-28T12:09:29;1.53;;;1.40;;
5277;SDS011;2662;51.194;6.614;2023-02-28T12:12:07;2.60;;;1.60;;
5277;SDS011;2662;51.194;6.614;2023-02-28T12:14:49;1.93;;;1.40;;
5277;SDS011;2662;51.194;6.614;2023-02-28T12:17:27;3.53;;;1.20;;
5277;SDS011;2662;51.194;6.614;2023-02-28T12:20:12;1.70;;;1.20;;
5277;SDS011;2662;51.194;6.614;2023-02-28T12:22:49;5.80;;;1.53;;
5277;SDS011;2662;51.194;6.614;2023-02-28T12:25:34;1.70;;;1.60;;
5277;SDS011;2662;51.194;6.614;2023-02-28T12:28:11;1.70;;;1.60;;
5277;SDS011;2662;51.194;6.614;2023-02-28T12:30:41;3.70;;;1.90;;
5277;SDS011;2662;51.194;6.614;2023-02-28T12:33:16;1.70;;;1.60;;
5277;SDS011;2662;51.194;6.614;2023-02-28T12:35:47;1.60;;;1.50;;
5277;SDS011;2662;51.194;6.614;2023-02-28T12:38:17;1.53;;;1.43;;
5277;SDS011;2662;51.194;6.614;2023-02-28T12:40:47;4.20;;;1.30;;
5277;SDS011;2662;51.194;6.614;2023-02-28T12:43:20;1.30;;;1.30;;
5277;SDS011;2662;51.194;6.614;2023-02-28T12:45:51;1.97;;;1.60;;
5277;SDS011;2662;51.194;6.614;2023-02-28T12:48:24;2.03;;;1.60;;
5277;SDS011;2662;51.194;6.614;2023-02-28T12:50:55;3.90;;;1.70;;
5277;SDS011;2662;51.194;6.614;2023-02-28T12:53:23;3.93;;;1.70;;
5277;SDS011;2662;51.194;6.614;2023-02-28T12:55:58;3.50;;;1.80;;
5277;SDS011;2662;51.194;6.614;2023-02-28T12:58:36;4.33;;;1.50;;
5277;SDS011;2662;51.194;6.614;2023-02-28T13:04:14;3.27;;;1.60;;
5277;SDS011;2662;51.194;6.614;2023-02-28T13:07:08;2.67;;;1.43;;
5277;SDS011;2662;51.194;6.614;2023-02-28T13:09:51;1.70;;;1.60;;
5277;SDS011;2662;51.194;6.614;2023-02-28T13:12:19;1.70;;;1.60;;
5277;SDS011;2662;51.194;6.614;2023-02-28T13:14:49;1.50;;;1.40;;
5277;SDS011;2662;51.194;6.614;2023-02-28T13:17:17;1.77;;;1.67;;
5277;SDS011;2662;51.194;6.614;2023-02-28T13:19:46;2.13;;;1.77;;
5277;SDS011;2662;51.194;6.614;2023-02-28T13:22:36;8.30;;;1.70;;
5277;SDS011;2662;51.194;6.614;2023-02-28T13:25:15;3.50;;;1.53;;
5277;SDS011;2662;51.194;6.614;2023-02-28T13:31:33;1.63;;;1.33;;
5277;SDS011;2662;51.194;6.614;2023-02-28T13:34:38;2.40;;;1.93;;
5277;SDS011;2662;51.194;6.614;2023-02-28T13:40:26;1.60;;;1.50;;
5277;SDS011;2662;51.194;6.614;2023-02-28T13:43:01;2.00;;;1.57;;
5277;SDS011;2662;51.194;6.614;2023-02-28T13:45:29;2.50;;;1.73;;
5277;SDS011;2662;51.194;6.614;2023-02-28T13:48:04;4.07;;;2.30;;
5277;SDS011;2662;51.194;6.614;2023-02-28T13:50:42;5.97;;;2.10;;
5277;SDS011;2662;51.194;6.614;2023-02-28T13:53:19;2.53;;;1.30;;
5277;SDS011;2662;51.194;6.614;2023-02-28T13:56:01;2.00;;;1.43;;
5277;SDS011;2662;51.194;6.614;2023-02-28T13:58:36;1.90;;;1.27;;
5277;SDS011;2662;51.194;6.614;2023-02-28T14:01:16;1.83;;;1.73;;
5277;SDS011;2662;51.194;6.614;2023-02-28T14:04:06;2.53;;;1.30;;
5277;SDS011;2662;51.194;6.614;2023-02-28T14:06:48;2.50;;;1.60;;
5277;SDS011;2662;51.194;6.614;2023-02-28T14:09:19;2.10;;;1.67;;
5277;SDS011;2662;51.194;6.614;2023-02-28T14:11:50;2.70;;;1.97;;
5277;SDS011;2662;51.194;6.614;2023-02-28T14:17:14;3.27;;;1.20;;
5277;SDS011;2662;51.194;6.614;2023-02-28T14:19:45;2.10;;;1.90;;
5277;SDS011;2662;51.194;6.614;2023-02-28T14:22:16;1.50;;;1.40;;
5277;SDS011;2662;51.194;6.614;2023-02-28T14:25:08;4.30;;;1.90;;
5277;SDS011;2662;51.194;6.614;2023-02-28T14:27:43;3.60;;;1.80;;
5277;SDS011;2662;51.194;6.614;2023-02-28T14:33:24;2.90;;;1.70;;
5277;SDS011;2662;51.194;6.614;2023-02-28T14:36:14;2.27;;;2.07;;
5277;SDS011;2662;51.194;6.614;2023-02-28T14:38:46;2.07;;;1.87;;
5277;SDS011;2662;51.194;6.614;2023-02-28T14:41:17;1.70;;;1.60;;
5277;SDS011;2662;51.194;6.614;2023-02-28T14:43:52;2.37;;;2.17;;
5277;SDS011;2662;51.194;6.614;2023-02-28T14:46:21;1.93;;;1.83;;
5277;SDS011;2662;51.194;6.614;2023-02-28T14:48:51;3.30;;;1.80;;
5277;SDS011;2662;51.194;6.614;2023-02-28T14:51:20;1.90;;;1.80;;
5277;SDS011;2662;51.194;6.614;2023-02-28T14:53:49;1.90;;;1.80;;
5277;SDS011;2662;51.194;6.614;2023-02-28T14:56:19;4.43;;;2.03;;
5277;SDS011;2662;51.194;6.614;2023-02-28T14:58:50;3.37;;;2.37;;
5277;SDS011;2662;51.194;6.614;2023-02-28T15:01:19;2.30;;;1.67;;
5277;SDS011;2662;51.194;6.614;2023-02-28T15:03:47;2.37;;;2.17;;
5277;SDS011;2662;51.194;6.614;2023-02-28T15:06:23;2.10;;;1.90;;
5277;SDS011;2662;51.194;6.614;2023-02-28T15:11:33;4.20;;;1.97;;
5277;SDS011;2662;51.194;6.614;2023-02-28T15:14:01;1.70;;;1.60;;
5277;SDS011;2662;51.194;6.614;2023-02-28T15:16:29;2.23;;;2.03;;
5277;SDS011;2662;51.194;6.614;2023-02-28T15:18:59;2.33;;;2.20;;
5277;SDS011;2662;51.194;6.614;2023-02-28T15:21:30;2.93;;;1.80;;
5277;SDS011;2662;51.194;6.614;2023-02-28T15:24:00;1.83;;;1.73;;
5277;SDS011;2662;51.194;6.614;2023-02-28T15:26:32;3.70;;;1.63;;
5277;SDS011;2662;51.194;6.614;2023-02-28T15:29:01;1.60;;;1.50;;
5277;SDS011;2662;51.194;6.614;2023-02-28T15:31:31;1.87;;;1.60;;
5277;SDS011;2662;51.194;6.614;2023-02-28T15:34:02;3.20;;;2.17;;
5277;SDS011;2662;51.194;6.614;2023-02-28T15:36:32;3.87;;;1.83;;
5277;SDS011;2662;51.194;6.614;2023-02-28T15:39:02;2.17;;;1.93;;
5277;SDS011;2662;51.194;6.614;2023-02-28T15:41:44;5.23;;;2.27;;
5277;SDS011;2662;51.194;6.614;2023-02-28T15:44:14;2.90;;;2.20;;
5277;SDS011;2662;51.194;6.614;2023-02-28T15:46:56;8.87;;;2.10;;
5277;SDS011;2662;51.194;6.614;2023-02-28T15:49:26;3.30;;;2.80;;
5277;SDS011;2662;51.194;6.614;2023-02-28T15:51:57;3.00;;;2.00;;
5277;SDS011;2662;51.194;6.614;2023-02-28T15:54:27;3.33;;;1.97;;
5277;SDS011;2662;51.194;6.614;2023-02-28T15:56:55;3.50;;;2.03;;
5277;SDS011;2662;51.194;6.614;2023-02-28T15:59:24;2.20;;;2.00;;